PDX weather

Portland International Airport
Portland, Oregon, United States

Public forecast

Using degrees Fahrenheit for public forecast. Weather courtesy of forecast.io.

METAR (pilot weather report)

Retrieved 2017/10/17 05:53 UTC (52 minutes ago):

KPDX 170553Z 08003KT 10SM FEW250 10/09 A3012 RMK AO2 SLP198 T01000094 10194 20100 58009

TAF (pilot weather forecast)

Retrieved 2017/10/17 06:30 UTC (15 minutes ago):

TAF KPDX 170528Z 1706/1806 VRB04KT P6SM SCT250 FM171300 15006KT P6SM SCT060 BKN100 FM171800 20010KT P6SM -RA BKN035 OVC050 FM172300 25008KT P6SM VCSH SCT025 BKN050 FM180100 30005KT P6SM SCT025 BKN050